.
WxDataArchive / Data Records for 2013-07-01
2013-06-30 July 2013 2013-07-02

Data Records for Monday, 01 July 2013

Time	Temp	Chill	HIndex	Humid	Dewpt	 Wind 	HiWind	WindDir	Rain 	Barom 
-----	----	-----	------	-----	-----	------	------	-------	-----	----- 
00:00	67.8	67.8	67.8	80	61.4	0	2	90	0.00	29.896 
00:05	67.8	67.8	67.8	81	61.7	0	2	90	0.00	29.896 
00:10	67.9	67.9	67.9	81	61.8	0	3	90	0.00	29.896 
00:15	67.9	67.9	67.9	81	61.8	0	2	90	0.00	29.895 
00:20	67.8	67.8	67.8	81	61.7	0	3	90	0.00	29.895 
00:25	67.8	67.8	67.8	81	61.7	0	2	90	0.00	29.895 
00:30	67.8	67.8	67.8	81	61.7	0	2	90	0.00	29.896 
00:35	67.8	67.8	67.8	81	61.7	0	2	90	0.00	29.896 
00:40	67.6	67.6	67.6	80	61.2	0	2	90	0.00	29.896 
00:45	67.6	67.6	67.6	80	61.2	0	2	90	0.00	29.894 
00:50	67.6	67.6	67.6	80	61.2	0	2	90	0.00	29.894 
00:55	67.6	67.6	67.6	80	61.2	0	1	90	0.00	29.894 
01:00	67.6	67.6	67.6	80	61.2	0	1	90	0.00	29.895 
01:05	67.4	67.4	67.4	80	61.0	0	0	---	0.00	29.895 
01:10	67.3	67.3	67.3	81	61.3	0	0	---	0.00	29.895 
01:15	67.1	67.1	67.1	81	61.1	0	0	---	0.00	29.895 
01:20	67.1	67.1	67.1	81	61.1	0	0	---	0.00	29.895 
01:25	66.9	66.9	66.9	81	60.9	0	1	90	0.00	29.895 
01:30	66.8	66.8	66.8	81	60.8	0	0	---	0.00	29.895 
01:35	66.8	66.8	66.8	81	60.8	0	1	90	0.00	29.895 
01:40	66.6	66.6	66.6	81	60.6	0	0	---	0.00	29.895 
01:45	66.6	66.6	66.6	81	60.6	0	0	---	0.00	29.897 
01:50	66.4	66.4	66.4	82	60.7	0	1	90	0.00	29.897 
01:55	66.4	66.4	66.4	82	60.7	0	1	90	0.00	29.897 
02:00	66.3	66.3	66.3	82	60.6	0	0	---	0.00	29.894 
02:05	66.3	66.3	66.3	83	61.0	0	1	90	0.00	29.894 
02:10	66.1	66.1	66.1	83	60.8	0	2	90	0.00	29.894 
02:15	66.0	66.0	66.0	83	60.7	0	1	90	0.00	29.895 
02:20	66.0	66.0	66.0	83	60.7	0	1	90	0.00	29.895 
02:25	65.8	65.8	65.8	82	60.1	0	3	90	0.00	29.895 
02:30	65.8	65.8	65.8	82	60.1	0	3	112	0.00	29.898 
02:35	65.8	65.8	65.8	82	60.1	0	1	112	0.00	29.898 
02:40	65.8	65.8	65.8	82	60.1	0	1	112	0.00	29.898 
02:45	65.6	65.6	65.6	82	59.9	0	1	112	0.00	29.895 
02:50	65.6	65.6	65.6	82	59.9	0	2	112	0.00	29.895 
02:55	65.5	65.5	65.5	82	59.9	0	1	112	0.00	29.895 
03:00	65.5	65.5	65.5	82	59.9	0	1	112	0.00	29.895 
03:05	65.3	65.3	65.3	82	59.7	0	2	112	0.00	29.895 
03:10	65.2	65.2	65.2	82	59.6	0	1	112	0.00	29.895 
03:15	65.0	65.0	65.0	82	59.4	0	1	112	0.00	29.894 
03:20	64.8	64.8	64.8	83	59.5	0	3	112	0.00	29.894 
03:25	64.7	64.7	64.7	83	59.4	0	1	112	0.00	29.894 
03:30	64.5	64.5	64.5	83	59.2	0	3	135	0.00	29.885 
03:35	64.3	64.3	64.3	84	59.4	0	1	135	0.00	29.885 
03:40	64.2	64.2	64.2	84	59.3	0	1	135	0.00	29.885 
03:45	64.0	64.0	64.0	84	59.1	0	1	135	0.00	29.883 
03:50	63.9	63.9	63.9	84	59.0	0	1	135	0.00	29.883 
03:55	63.7	63.7	63.7	84	58.8	0	2	135	0.00	29.883 
04:00	63.5	63.5	63.5	84	58.6	0	1	135	0.00	29.884 
04:05	63.5	63.5	63.5	84	58.6	0	2	135	0.00	29.884 
04:10	63.4	63.4	63.4	84	58.5	0	1	135	0.00	29.884 
04:15	63.4	63.4	63.4	84	58.5	0	3	135	0.00	29.880 
04:20	63.2	63.2	63.2	83	57.9	0	2	135	0.00	29.880 
04:25	63.2	63.2	63.2	82	57.6	0	3	135	0.00	29.880 
04:30	63.1	63.1	63.1	81	57.2	0	1	135	0.00	29.883 
04:35	63.1	63.1	63.1	81	57.2	0	2	202	0.00	29.883 
04:40	62.9	62.9	62.9	81	57.0	0	2	202	0.00	29.883 
04:45	62.9	62.9	62.9	80	56.6	0	1	225	0.00	29.888 
04:50	62.7	62.7	62.7	80	56.4	0	2	225	0.00	29.888 
04:55	62.7	62.7	62.7	80	56.4	0	1	90	0.00	29.888 
05:00	62.6	62.6	62.6	80	56.3	0	2	90	0.00	29.896 
05:05	62.4	62.4	62.4	80	56.1	0	2	90	0.00	29.896 
05:10	62.4	62.4	62.4	80	56.1	0	3	90	0.00	29.896 
05:15	62.3	62.3	62.3	80	56.0	0	1	90	0.00	29.900 
05:20	62.3	62.3	62.3	80	56.0	0	1	90	0.00	29.900 
05:25	62.1	62.1	62.1	80	55.9	0	0	---	0.00	29.900 
05:30	62.1	62.1	62.1	80	55.9	0	3	90	0.00	29.906 
05:35	62.0	62.0	62.0	79	55.4	0	1	90	0.00	29.906 
05:40	62.0	62.0	62.0	79	55.4	0	2	90	0.00	29.906 
05:45	62.0	62.0	62.0	79	55.4	0	1	90	0.00	29.909 
05:50	62.0	62.0	62.0	79	55.4	0	2	90	0.00	29.909 
05:55	61.8	61.8	61.8	78	54.9	0	2	90	0.00	29.909 
06:00	61.8	61.8	61.8	78	54.9	0	2	90	0.00	29.909 
06:05	61.6	61.6	61.6	79	55.0	0	1	90	0.00	29.909 
06:10	61.6	61.6	61.6	79	55.0	0	0	---	0.00	29.909 
06:15	61.5	61.5	61.5	79	54.9	0	0	---	0.00	29.910 
06:20	61.5	61.5	61.5	79	54.9	0	2	90	0.00	29.910 
06:25	61.3	61.3	61.3	79	54.7	0	2	90	0.00	29.910 
06:30	61.3	61.3	61.3	78	54.4	0	2	90	0.00	29.904 
06:35	61.3	61.3	61.3	78	54.4	0	3	90	0.00	29.904 
06:40	61.3	61.3	61.3	77	54.0	0	4	158	0.00	29.904 
06:45	61.3	61.3	61.3	77	54.0	0	1	158	0.00	29.907 
06:50	61.2	61.2	61.2	77	53.9	0	1	158	0.00	29.907 
06:55	61.2	61.2	61.2	77	53.9	0	2	158	0.00	29.907 
07:00	61.2	61.2	61.2	77	53.9	0	1	158	0.00	29.907 
07:05	61.2	61.2	61.2	77	53.9	0	1	158	0.00	29.907 
07:10	61.2	61.2	61.2	78	54.3	0	1	158	0.00	29.907 
07:15	61.2	61.2	61.2	77	53.9	0	1	158	0.00	29.912 
07:20	61.2	61.2	61.2	77	53.9	0	1	158	0.00	29.912 
07:25	61.2	61.2	61.2	77	53.9	0	3	135	0.00	29.912 
07:30	61.2	61.2	61.2	77	53.9	0	1	135	0.00	29.915 
07:35	61.2	61.2	61.2	77	53.9	0	2	135	0.00	29.915 
07:40	61.2	61.2	61.2	77	53.9	0	1	135	0.00	29.915 
07:45	61.2	61.2	61.2	77	53.9	0	1	135	0.00	29.919 
07:50	61.2	61.2	61.2	77	53.9	0	1	135	0.00	29.919 
07:55	61.2	61.2	61.2	77	53.9	0	2	135	0.00	29.919 
08:00	61.2	61.2	61.2	77	53.9	0	3	135	0.00	29.918 
08:05	61.2	61.2	61.2	77	53.9	0	2	135	0.00	29.918 
08:10	61.2	61.2	61.2	77	53.9	0	2	135	0.00	29.918 
08:15	61.2	61.2	61.2	77	53.9	0	3	248	0.00	29.918 
08:20	61.2	61.2	61.2	77	53.9	0	2	248	0.00	29.918 
08:25	61.2	61.2	61.2	77	53.9	0	1	248	0.00	29.918 
08:30	61.2	61.2	61.2	77	53.9	0	1	248	0.00	29.918 
08:35	61.2	61.2	61.2	77	53.9	0	2	248	0.00	29.918 
08:40	61.2	61.2	61.2	78	54.3	0	3	180	0.00	29.918 
08:45	61.3	61.3	61.3	77	54.0	0	2	180	0.00	29.918 
08:50	61.6	61.6	61.6	77	54.3	0	2	180	0.00	29.918 
08:55	62.0	62.0	62.0	78	55.1	0	4	180	0.00	29.918 
09:00	62.3	62.3	62.3	77	55.0	1	4	90	0.00	29.922 
09:05	62.6	62.6	62.6	76	54.9	1	4	112	0.00	29.922 
09:10	62.9	62.9	62.9	77	55.6	0	2	45	0.00	29.922 
09:15	63.2	63.2	63.2	77	55.9	0	3	45	0.00	29.921 
09:20	63.4	63.4	63.4	76	55.7	1	7	180	0.00	29.921 
09:25	63.7	63.7	63.7	76	56.0	0	2	248	0.00	29.921 
09:30	64.0	64.0	64.0	76	56.3	0	2	248	0.00	29.927 
09:35	64.2	64.2	64.2	76	56.5	1	3	248	0.00	29.927 
09:40	64.5	64.5	64.5	76	56.8	1	4	112	0.00	29.927 
09:45	64.8	64.8	64.8	76	57.0	1	2	112	0.00	29.925 
09:50	65.2	65.2	65.2	77	57.8	1	3	0	0.00	29.925 
09:55	65.5	65.5	65.5	75	57.4	1	5	135	0.00	29.925 
10:00	65.6	65.6	65.6	75	57.5	1	3	135	0.00	29.927 
10:05	66.1	66.1	66.1	76	58.3	1	5	112	0.00	29.927 
10:10	66.4	66.4	66.4	76	58.6	1	4	112	0.00	29.927 
10:15	66.6	66.6	66.6	74	58.0	1	5	112	0.00	29.929 
10:20	66.9	66.9	66.9	75	58.7	1	3	112	0.00	29.929 
10:25	66.9	66.9	66.9	74	58.3	1	5	112	0.00	29.929 
10:30	66.9	66.9	66.9	74	58.3	1	3	270	0.00	29.928 
10:35	66.9	66.9	66.9	74	58.3	1	4	90	0.00	29.928 
10:40	67.1	67.1	67.1	74	58.5	1	4	248	0.00	29.928 
10:45	67.3	67.3	67.3	75	59.1	0	2	248	0.00	29.928 
10:50	67.4	67.4	67.4	74	58.8	1	5	248	0.00	29.928 
10:55	67.6	67.6	67.6	74	59.0	1	3	270	0.00	29.928 
11:00	67.9	67.9	67.9	73	58.9	1	3	112	0.00	29.928 
11:05	68.1	68.1	68.1	73	59.1	2	5	112	0.00	29.928 
11:10	68.1	68.1	68.1	72	58.7	2	5	90	0.00	29.928 
11:15	68.1	68.1	68.1	73	59.1	1	9	112	0.00	29.931 
11:20	68.3	68.3	68.3	72	58.9	1	4	112	0.00	29.931 
11:25	68.4	68.4	68.4	73	59.4	0	3	112	0.00	29.931 
11:30	68.4	68.4	68.4	72	59.0	1	4	112	0.00	29.940 
11:35	68.4	68.4	68.4	71	58.6	1	4	112	0.00	29.940 
11:40	68.4	68.4	68.4	71	58.6	1	3	45	0.00	29.940 
11:45	68.3	68.3	68.3	72	58.9	2	4	112	0.00	29.948 
11:50	68.1	68.1	68.1	71	58.3	2	5	90	0.00	29.948 
11:55	68.3	68.3	68.3	72	58.9	1	5	112	0.00	29.948 
12:00	68.1	68.1	68.1	71	58.3	1	6	112	0.00	29.950 
12:05	67.9	67.9	67.9	71	58.1	2	4	112	0.00	29.950 
12:10	67.8	67.8	67.8	71	58.0	1	4	112	0.00	29.950 
12:15	67.6	67.6	67.6	72	58.2	1	4	112	0.00	29.957 
12:20	67.4	67.4	67.4	72	58.1	2	6	112	0.00	29.957 
12:25	67.1	67.1	67.1	72	57.8	3	5	90	0.00	29.957 
12:30	66.8	66.8	66.8	71	57.1	3	9	90	0.00	29.968 
12:35	66.4	66.4	66.4	72	57.1	2	5	90	0.00	29.968 
12:40	66.1	66.1	66.1	71	56.4	4	11	90	0.00	29.968 
12:45	66.0	66.0	66.0	72	56.7	2	5	90	0.00	29.974 
12:50	65.6	65.6	65.6	73	56.7	1	4	90	0.00	29.974 
12:55	65.5	65.5	65.5	74	57.0	1	3	90	0.00	29.974 
13:00	65.3	65.3	65.3	76	57.5	1	7	90	0.00	29.975 
13:05	64.8	64.8	64.8	76	57.0	2	6	68	0.01	29.975 
13:10	64.7	64.7	64.7	78	57.7	2	4	90	0.00	29.975 
13:15	64.5	64.5	64.5	79	57.8	1	3	90	0.00	29.975 
13:20	64.2	64.2	64.2	81	58.2	1	6	90	0.01	29.975 
13:25	64.0	64.0	64.0	82	58.4	0	2	90	0.00	29.975 
13:30	64.0	64.0	64.0	84	59.1	0	1	90	0.01	29.970 
13:35	64.0	64.0	64.0	85	59.4	0	3	90	0.00	29.970 
13:40	63.9	63.9	63.9	85	59.3	0	1	90	0.00	29.970 
13:45	63.7	63.7	63.7	85	59.1	0	2	90	0.00	29.966 
13:50	63.5	63.5	63.5	86	59.2	0	2	90	0.00	29.966 
13:55	63.4	63.4	63.4	86	59.1	0	2	90	0.02	29.966 
14:00	63.2	63.2	63.2	87	59.3	0	3	112	0.00	29.966 
14:05	63.1	63.1	63.1	88	59.5	0	1	112	0.04	29.966 
14:10	62.9	62.9	62.9	88	59.3	0	1	112	0.03	29.966 
14:15	62.6	62.6	62.6	89	59.3	0	0	---	0.02	29.964 
14:20	62.4	62.4	62.4	89	59.1	0	0	---	0.00	29.964 
14:25	62.3	62.3	62.3	90	59.3	0	0	---	0.00	29.964 
14:30	62.3	62.3	62.3	90	59.3	0	0	---	0.00	29.961 
14:35	62.4	62.4	62.4	90	59.4	0	1	112	0.00	29.961 
14:40	62.4	62.4	62.4	91	59.7	0	0	---	0.00	29.961 
14:45	62.6	62.6	62.6	91	59.9	0	2	112	0.00	29.961 
14:50	62.6	62.6	62.6	91	59.9	0	1	112	0.00	29.961 
14:55	62.7	62.7	62.7	91	60.0	0	2	112	0.00	29.961 
15:00	62.7	62.7	62.7	91	60.0	0	3	112	0.01	29.955 
15:05	62.9	62.9	62.9	92	60.5	0	1	112	0.00	29.955 
15:10	62.7	62.7	62.7	91	60.0	1	3	112	0.00	29.955 
15:15	62.7	62.7	62.7	92	60.3	0	3	292	0.00	29.952 
15:20	62.9	62.9	62.9	92	60.5	0	2	292	0.01	29.952 
15:25	63.1	63.1	63.1	92	60.7	1	4	45	0.01	29.952 
15:30	63.4	63.4	63.4	92	61.0	0	3	90	0.00	29.950 
15:35	63.7	63.7	63.7	92	61.3	0	2	90	0.00	29.950 
15:40	64.2	64.2	64.2	93	62.1	0	2	90	0.00	29.950 
15:45	64.3	64.3	64.3	93	62.2	0	3	90	0.00	29.948 
15:50	64.5	64.5	64.5	93	62.4	0	2	90	0.00	29.948 
15:55	64.8	64.8	64.8	93	62.7	1	4	112	0.00	29.948 
16:00	65.2	65.2	65.2	93	63.1	0	3	112	0.00	29.951 
16:05	65.6	65.6	65.6	93	63.5	0	3	135	0.00	29.951 
16:10	65.8	65.8	65.8	92	63.4	0	3	135	0.00	29.951 
16:15	66.1	66.1	66.1	92	63.7	0	2	135	0.00	29.951 
16:20	66.4	66.4	66.4	92	64.0	0	2	112	0.00	29.951 
16:25	66.8	66.8	66.8	92	64.4	1	3	135	0.00	29.951 
16:30	66.6	66.6	66.6	90	63.6	2	7	90	0.00	29.952 
16:35	66.6	66.6	66.6	88	62.9	1	4	90	0.00	29.952 
16:40	66.8	66.8	66.8	87	62.8	2	6	90	0.00	29.952 
16:45	66.8	66.8	66.8	84	61.8	3	7	112	0.00	29.956 
16:50	67.1	67.1	67.1	83	61.8	3	6	90	0.00	29.956 
16:55	67.4	67.4	67.4	83	62.0	2	7	112	0.00	29.956 
17:00	67.4	67.4	67.4	81	61.4	3	7	112	0.00	29.956 
17:05	67.8	67.8	67.8	81	61.7	2	7	90	0.00	29.956 
17:10	68.1	68.1	68.1	80	61.7	3	6	112	0.00	29.956 
17:15	68.3	68.3	68.3	79	61.5	3	7	90	0.00	29.956 
17:20	68.3	68.3	68.3	78	61.2	3	6	68	0.00	29.956 
17:25	68.6	68.6	68.6	77	61.1	4	11	90	0.00	29.956 
17:30	68.9	68.9	68.9	77	61.4	2	6	68	0.00	29.956 
17:35	69.1	69.1	69.1	76	61.2	3	6	112	0.00	29.956 
17:40	69.1	69.1	69.1	74	60.5	4	11	90	0.00	29.956 
17:45	69.4	69.4	69.4	72	60.0	4	11	90	0.00	29.960 
17:50	69.6	69.6	69.6	71	59.8	3	13	90	0.00	29.960 
17:55	69.6	69.6	69.6	71	59.8	4	15	90	0.00	29.960 
18:00	69.3	69.3	69.3	70	59.1	5	11	90	0.00	29.966 
18:05	68.8	68.8	68.8	70	58.6	4	10	90	0.00	29.966 
18:10	68.4	68.4	68.4	71	58.6	3	7	90	0.00	29.966 
18:15	68.3	68.3	68.3	71	58.5	5	12	90	0.00	29.969 
18:20	68.1	68.1	68.1	72	58.7	4	11	90	0.00	29.969 
18:25	68.1	68.1	68.1	72	58.7	4	12	90	0.00	29.969 
18:30	68.1	68.1	68.1	72	58.7	4	8	90	0.00	29.965 
18:35	68.1	68.1	68.1	73	59.1	2	6	90	0.00	29.965 
18:40	68.3	68.3	68.3	73	59.3	2	7	112	0.00	29.965 
18:45	68.1	68.1	68.1	73	59.1	2	7	112	0.00	29.969 
18:50	67.9	67.9	67.9	73	58.9	2	7	45	0.00	29.969 
18:55	68.1	68.1	68.1	74	59.5	2	5	90	0.00	29.969 
19:00	68.1	68.1	68.1	73	59.1	4	12	90	0.00	29.967 
19:05	68.1	68.1	68.1	73	59.1	4	9	112	0.00	29.967 
19:10	68.1	68.1	68.1	74	59.5	3	7	90	0.00	29.967 
19:15	67.8	67.8	67.8	74	59.2	3	7	90	0.00	29.974 
19:20	67.6	67.6	67.6	75	59.4	2	5	68	0.00	29.974 
19:25	67.4	67.4	67.4	73	58.4	3	9	90	0.00	29.974 
19:30	67.3	67.3	67.3	73	58.3	4	10	90	0.00	29.972 
19:35	67.1	67.1	67.1	74	58.5	2	6	90	0.00	29.972 
19:40	66.9	66.9	66.9	75	58.7	1	4	45	0.00	29.972 
19:45	66.8	66.8	66.8	74	58.2	2	6	112	0.00	29.981 
19:50	66.8	66.8	66.8	75	58.6	2	5	112	0.00	29.981 
19:55	66.6	66.6	66.6	74	58.0	2	5	112	0.00	29.981 
20:00	66.4	66.4	66.4	74	57.9	2	6	90	0.00	29.985 
20:05	66.4	66.4	66.4	75	58.2	1	3	90	0.00	29.985 
20:10	66.3	66.3	66.3	74	57.8	2	6	112	0.00	29.985 
20:15	66.3	66.3	66.3	74	57.8	2	4	112	0.00	29.996 
20:20	66.0	66.0	66.0	72	56.7	3	17	112	0.00	29.996 
20:25	66.0	66.0	66.0	71	56.3	4	9	90	0.00	29.996 
20:30	66.0	66.0	66.0	71	56.3	2	6	90	0.00	30.005 
20:35	65.8	65.8	65.8	71	56.1	2	6	112	0.00	30.005 
20:40	65.6	65.6	65.6	71	55.9	2	7	68	0.00	30.005 
20:45	65.5	65.5	65.5	70	55.4	3	6	90	0.00	30.005 
20:50	65.3	65.3	65.3	70	55.3	2	6	90	0.00	30.005 
20:55	65.3	65.3	65.3	71	55.6	1	9	90	0.00	30.005 
21:00	65.2	65.2	65.2	72	55.9	1	5	68	0.00	30.000 
21:05	65.0	65.0	65.0	72	55.7	1	5	68	0.00	30.000 
21:10	65.0	65.0	65.0	72	55.7	1	5	68	0.00	30.000 
21:15	65.0	65.0	65.0	73	56.1	1	3	68	0.00	29.995 
21:20	64.8	64.8	64.8	73	55.9	1	3	68	0.00	29.995 
21:25	64.7	64.7	64.7	72	55.5	1	5	112	0.00	29.995 
21:30	64.7	64.7	64.7	71	55.1	2	6	90	0.00	29.995 
21:35	64.7	64.7	64.7	71	55.1	1	5	112	0.00	29.995 
21:40	64.7	64.7	64.7	72	55.5	1	3	90	0.00	29.995 
21:45	64.5	64.5	64.5	71	54.9	2	6	68	0.00	29.992 
21:50	64.5	64.5	64.5	71	54.9	1	7	112	0.00	29.992 
21:55	64.5	64.5	64.5	71	54.9	1	6	90	0.00	29.992 
22:00	64.3	64.3	64.3	72	55.1	1	4	68	0.00	29.992 
22:05	64.3	64.3	64.3	72	55.1	2	10	112	0.00	29.992 
22:10	64.3	64.3	64.3	72	55.1	2	6	112	0.00	29.992 
22:15	64.2	64.2	64.2	73	55.4	2	6	68	0.00	29.987 
22:20	64.2	64.2	64.2	73	55.4	2	6	112	0.00	29.987 
22:25	64.2	64.2	64.2	74	55.7	2	5	90	0.00	29.987 
22:30	64.2	64.2	64.2	75	56.1	1	3	90	0.00	29.985 
22:35	64.0	64.0	64.0	75	55.9	1	4	90	0.00	29.985 
22:40	64.0	64.0	64.0	75	55.9	1	4	90	0.00	29.985 
22:45	63.9	63.9	63.9	76	56.2	1	6	112	0.00	29.986 
22:50	63.9	63.9	63.9	76	56.2	2	5	90	0.00	29.986 
22:55	63.9	63.9	63.9	76	56.2	1	4	90	0.00	29.986 
23:00	63.9	63.9	63.9	76	56.2	2	6	90	0.00	29.990 
23:05	63.9	63.9	63.9	77	56.5	2	11	45	0.00	29.990 
23:10	63.9	63.9	63.9	77	56.5	2	7	90	0.00	29.990 
23:15	63.9	63.9	63.9	77	56.5	3	7	90	0.00	29.997 
23:20	63.9	63.9	63.9	77	56.5	2	6	90	0.00	29.997 
23:25	63.9	63.9	63.9	77	56.5	3	9	90	0.00	29.997 
23:30	63.9	63.9	63.9	78	56.9	1	6	90	0.00	29.995 
23:35	63.7	63.7	63.7	78	56.7	2	6	90	0.00	29.995 
23:40	63.7	63.7	63.7	78	56.7	1	5	90	0.00	29.995 
23:45	63.5	63.5	63.5	78	56.5	1	5	90	0.00	29.989 
23:50	63.5	63.5	63.5	78	56.5	1	5	90	0.00	29.989 
23:55	63.4	63.4	63.4	78	56.4	0	5	90	0.00	29.989 

CoCoRaHS
IN-AL-39
A2 Web Hosting
Creative Commons License
GoDaddy
search engine by freefind advanced

loaded 2018-11-12 16:02:34 • last modified 2010-11-18 10:43:29
Privacy PolicyDisclaimer
• wx.awcolley.com is powered by PmWiki v.2002016 •
• all content (unless otherwise noted) © 2018 A W Colley